sensor_id;sensor_type;location;lat;lon;timestamp;P1;durP1;ratioP1;P2;durP2;ratioP2
27051;SDS011;14601;49.358;8.256;2022-08-19T00:01:46;26.58;;;24.02;;
27051;SDS011;14601;49.358;8.256;2022-08-19T00:04:49;26.77;;;24.07;;
27051;SDS011;14601;49.358;8.256;2022-08-19T00:07:52;30.42;;;23.60;;
27051;SDS011;14601;49.358;8.256;2022-08-19T00:10:56;27.15;;;24.23;;
27051;SDS011;14601;49.358;8.256;2022-08-19T00:13:57;26.42;;;23.27;;
27051;SDS011;14601;49.358;8.256;2022-08-19T00:16:59;26.73;;;24.00;;
27051;SDS011;14601;49.358;8.256;2022-08-19T00:20:03;26.45;;;23.85;;
27051;SDS011;14601;49.358;8.256;2022-08-19T00:23:06;26.08;;;23.48;;
27051;SDS011;14601;49.358;8.256;2022-08-19T00:26:09;27.98;;;25.02;;
27051;SDS011;14601;49.358;8.256;2022-08-19T00:29:13;25.80;;;23.20;;
27051;SDS011;14601;49.358;8.256;2022-08-19T00:32:17;26.33;;;23.75;;
27051;SDS011;14601;49.358;8.256;2022-08-19T00:35:19;25.88;;;23.20;;
27051;SDS011;14601;49.358;8.256;2022-08-19T00:38:21;26.05;;;23.38;;
27051;SDS011;14601;49.358;8.256;2022-08-19T00:41:24;25.27;;;22.70;;
27051;SDS011;14601;49.358;8.256;2022-08-19T00:44:27;27.35;;;24.60;;
27051;SDS011;14601;49.358;8.256;2022-08-19T00:47:30;25.40;;;22.90;;
27051;SDS011;14601;49.358;8.256;2022-08-19T00:50:32;26.65;;;23.95;;
27051;SDS011;14601;49.358;8.256;2022-08-19T00:53:35;24.50;;;22.08;;
27051;SDS011;14601;49.358;8.256;2022-08-19T00:56:39;25.75;;;23.23;;
27051;SDS011;14601;49.358;8.256;2022-08-19T00:59:42;25.52;;;22.92;;
27051;SDS011;14601;49.358;8.256;2022-08-19T01:05:49;24.80;;;22.35;;
27051;SDS011;14601;49.358;8.256;2022-08-19T01:08:55;25.25;;;22.65;;
27051;SDS011;14601;49.358;8.256;2022-08-19T01:11:58;25.65;;;23.05;;
27051;SDS011;14601;49.358;8.256;2022-08-19T01:15:00;26.25;;;23.65;;
27051;SDS011;14601;49.358;8.256;2022-08-19T01:18:04;25.38;;;22.98;;
27051;SDS011;14601;49.358;8.256;2022-08-19T01:21:09;26.27;;;23.52;;
27051;SDS011;14601;49.358;8.256;2022-08-19T01:24:19;26.83;;;24.15;;
27051;SDS011;14601;49.358;8.256;2022-08-19T01:27:21;27.55;;;24.85;;
27051;SDS011;14601;49.358;8.256;2022-08-19T01:30:25;27.50;;;24.73;;
27051;SDS011;14601;49.358;8.256;2022-08-19T01:33:29;27.30;;;24.40;;
27051;SDS011;14601;49.358;8.256;2022-08-19T01:36:32;26.42;;;23.88;;
27051;SDS011;14601;49.358;8.256;2022-08-19T01:39:37;25.73;;;23.33;;
27051;SDS011;14601;49.358;8.256;2022-08-19T01:42:40;26.00;;;23.48;;
27051;SDS011;14601;49.358;8.256;2022-08-19T01:45:42;26.58;;;23.42;;
27051;SDS011;14601;49.358;8.256;2022-08-19T01:48:44;28.00;;;25.13;;
27051;SDS011;14601;49.358;8.256;2022-08-19T01:51:47;29.15;;;26.15;;
27051;SDS011;14601;49.358;8.256;2022-08-19T01:54:51;27.15;;;24.35;;
27051;SDS011;14601;49.358;8.256;2022-08-19T01:57:54;27.67;;;25.08;;
27051;SDS011;14601;49.358;8.256;2022-08-19T02:00:59;26.02;;;23.58;;
27051;SDS011;14601;49.358;8.256;2022-08-19T02:04:01;26.77;;;24.05;;
27051;SDS011;14601;49.358;8.256;2022-08-19T02:07:03;28.48;;;25.50;;
27051;SDS011;14601;49.358;8.256;2022-08-19T02:10:09;29.08;;;26.15;;
27051;SDS011;14601;49.358;8.256;2022-08-19T02:13:14;27.90;;;25.20;;
27051;SDS011;14601;49.358;8.256;2022-08-19T02:16:16;28.85;;;25.92;;
27051;SDS011;14601;49.358;8.256;2022-08-19T02:19:18;30.10;;;26.95;;
27051;SDS011;14601;49.358;8.256;2022-08-19T02:22:20;31.55;;;28.13;;
27051;SDS011;14601;49.358;8.256;2022-08-19T02:25:23;28.83;;;26.02;;
27051;SDS011;14601;49.358;8.256;2022-08-19T02:28:25;30.88;;;27.45;;
27051;SDS011;14601;49.358;8.256;2022-08-19T02:31:27;30.20;;;27.02;;
27051;SDS011;14601;49.358;8.256;2022-08-19T02:34:29;34.85;;;27.00;;
27051;SDS011;14601;49.358;8.256;2022-08-19T02:37:31;29.63;;;26.83;;
27051;SDS011;14601;49.358;8.256;2022-08-19T02:40:49;28.75;;;25.73;;
27051;SDS011;14601;49.358;8.256;2022-08-19T02:46:54;28.00;;;25.15;;
27051;SDS011;14601;49.358;8.256;2022-08-19T02:49:56;28.02;;;25.05;;
27051;SDS011;14601;49.358;8.256;2022-08-19T02:52:58;26.52;;;23.73;;
27051;SDS011;14601;49.358;8.256;2022-08-19T02:56:05;26.63;;;24.02;;
27051;SDS011;14601;49.358;8.256;2022-08-19T02:59:07;25.92;;;23.40;;
27051;SDS011;14601;49.358;8.256;2022-08-19T03:02:10;26.63;;;24.05;;
27051;SDS011;14601;49.358;8.256;2022-08-19T03:05:12;26.15;;;23.50;;
27051;SDS011;14601;49.358;8.256;2022-08-19T03:08:14;24.92;;;22.58;;
27051;SDS011;14601;49.358;8.256;2022-08-19T03:11:19;24.65;;;22.25;;
27051;SDS011;14601;49.358;8.256;2022-08-19T03:14:21;23.75;;;21.35;;
27051;SDS011;14601;49.358;8.256;2022-08-19T03:17:24;24.52;;;21.88;;
27051;SDS011;14601;49.358;8.256;2022-08-19T03:20:26;24.63;;;22.20;;
27051;SDS011;14601;49.358;8.256;2022-08-19T03:23:28;24.40;;;21.10;;
27051;SDS011;14601;49.358;8.256;2022-08-19T03:26:31;22.75;;;20.38;;
27051;SDS011;14601;49.358;8.256;2022-08-19T03:29:34;22.85;;;20.52;;
27051;SDS011;14601;49.358;8.256;2022-08-19T03:32:39;24.65;;;22.10;;
27051;SDS011;14601;49.358;8.256;2022-08-19T03:35:41;24.33;;;21.90;;
27051;SDS011;14601;49.358;8.256;2022-08-19T03:38:44;23.70;;;20.88;;
27051;SDS011;14601;49.358;8.256;2022-08-19T03:41:50;21.53;;;19.30;;
27051;SDS011;14601;49.358;8.256;2022-08-19T03:44:52;22.73;;;20.30;;
27051;SDS011;14601;49.358;8.256;2022-08-19T03:47:54;21.67;;;19.35;;
27051;SDS011;14601;49.358;8.256;2022-08-19T03:50:56;23.38;;;20.17;;
27051;SDS011;14601;49.358;8.256;2022-08-19T03:53:59;21.77;;;19.67;;
27051;SDS011;14601;49.358;8.256;2022-08-19T03:57:05;22.77;;;20.48;;
27051;SDS011;14601;49.358;8.256;2022-08-19T04:00:09;22.65;;;20.35;;
27051;SDS011;14601;49.358;8.256;2022-08-19T04:03:12;20.95;;;18.92;;
27051;SDS011;14601;49.358;8.256;2022-08-19T04:06:15;21.30;;;18.15;;
27051;SDS011;14601;49.358;8.256;2022-08-19T04:09:18;19.38;;;17.40;;
27051;SDS011;14601;49.358;8.256;2022-08-19T04:12:22;20.60;;;18.60;;
27051;SDS011;14601;49.358;8.256;2022-08-19T04:15:23;19.92;;;17.90;;
27051;SDS011;14601;49.358;8.256;2022-08-19T04:18:25;19.25;;;17.42;;
27051;SDS011;14601;49.358;8.256;2022-08-19T04:21:29;18.75;;;17.02;;
27051;SDS011;14601;49.358;8.256;2022-08-19T04:24:32;18.27;;;16.35;;
27051;SDS011;14601;49.358;8.256;2022-08-19T04:27:36;17.67;;;16.05;;
27051;SDS011;14601;49.358;8.256;2022-08-19T04:30:39;19.00;;;17.15;;
27051;SDS011;14601;49.358;8.256;2022-08-19T04:33:42;18.95;;;17.00;;
27051;SDS011;14601;49.358;8.256;2022-08-19T04:36:45;19.23;;;17.35;;
27051;SDS011;14601;49.358;8.256;2022-08-19T04:39:47;19.20;;;17.45;;
27051;SDS011;14601;49.358;8.256;2022-08-19T04:43:07;19.77;;;16.33;;
27051;SDS011;14601;49.358;8.256;2022-08-19T04:46:10;18.88;;;16.38;;
27051;SDS011;14601;49.358;8.256;2022-08-19T04:49:13;17.92;;;16.15;;
27051;SDS011;14601;49.358;8.256;2022-08-19T04:52:16;19.25;;;16.52;;
27051;SDS011;14601;49.358;8.256;2022-08-19T04:55:18;18.25;;;16.08;;
27051;SDS011;14601;49.358;8.256;2022-08-19T04:58:21;18.60;;;16.70;;
27051;SDS011;14601;49.358;8.256;2022-08-19T05:01:24;19.13;;;17.13;;
27051;SDS011;14601;49.358;8.256;2022-08-19T05:04:28;16.80;;;15.35;;
27051;SDS011;14601;49.358;8.256;2022-08-19T05:07:32;17.98;;;16.35;;
27051;SDS011;14601;49.358;8.256;2022-08-19T05:10:34;18.17;;;16.38;;
27051;SDS011;14601;49.358;8.256;2022-08-19T05:13:38;17.55;;;15.75;;
27051;SDS011;14601;49.358;8.256;2022-08-19T05:16:40;17.95;;;16.25;;
27051;SDS011;14601;49.358;8.256;2022-08-19T05:19:42;18.15;;;16.42;;
27051;SDS011;14601;49.358;8.256;2022-08-19T05:23:01;17.73;;;16.02;;
27051;SDS011;14601;49.358;8.256;2022-08-19T05:26:04;17.70;;;15.90;;
27051;SDS011;14601;49.358;8.256;2022-08-19T05:29:09;16.90;;;15.23;;
27051;SDS011;14601;49.358;8.256;2022-08-19T05:32:11;17.52;;;15.73;;
27051;SDS011;14601;49.358;8.256;2022-08-19T05:35:13;17.50;;;15.63;;
27051;SDS011;14601;49.358;8.256;2022-08-19T05:38:15;17.08;;;15.15;;
27051;SDS011;14601;49.358;8.256;2022-08-19T05:41:17;18.02;;;14.77;;
27051;SDS011;14601;49.358;8.256;2022-08-19T05:44:21;16.20;;;14.55;;
27051;SDS011;14601;49.358;8.256;2022-08-19T05:47:23;16.10;;;14.45;;
27051;SDS011;14601;49.358;8.256;2022-08-19T05:50:25;15.45;;;14.07;;
27051;SDS011;14601;49.358;8.256;2022-08-19T05:53:27;15.85;;;14.30;;
27051;SDS011;14601;49.358;8.256;2022-08-19T05:56:29;16.23;;;14.55;;
27051;SDS011;14601;49.358;8.256;2022-08-19T05:59:33;15.68;;;14.18;;
27051;SDS011;14601;49.358;8.256;2022-08-19T06:02:36;14.33;;;12.83;;
27051;SDS011;14601;49.358;8.256;2022-08-19T06:05:38;14.88;;;13.15;;
27051;SDS011;14601;49.358;8.256;2022-08-19T06:08:41;13.73;;;12.48;;
27051;SDS011;14601;49.358;8.256;2022-08-19T06:11:46;15.63;;;14.07;;
27051;SDS011;14601;49.358;8.256;2022-08-19T06:14:54;15.07;;;13.48;;
27051;SDS011;14601;49.358;8.256;2022-08-19T06:17:56;14.95;;;13.35;;
27051;SDS011;14601;49.358;8.256;2022-08-19T06:20:58;14.30;;;12.85;;
27051;SDS011;14601;49.358;8.256;2022-08-19T06:24:04;14.00;;;12.35;;
27051;SDS011;14601;49.358;8.256;2022-08-19T06:27:07;16.23;;;12.20;;
27051;SDS011;14601;49.358;8.256;2022-08-19T06:30:11;15.98;;;12.63;;
27051;SDS011;14601;49.358;8.256;2022-08-19T06:33:14;13.98;;;11.77;;
27051;SDS011;14601;49.358;8.256;2022-08-19T06:36:17;13.23;;;11.93;;
27051;SDS011;14601;49.358;8.256;2022-08-19T06:39:21;14.93;;;12.45;;
27051;SDS011;14601;49.358;8.256;2022-08-19T06:42:25;15.02;;;11.93;;
27051;SDS011;14601;49.358;8.256;2022-08-19T06:45:28;13.43;;;12.07;;
27051;SDS011;14601;49.358;8.256;2022-08-19T06:48:30;12.70;;;11.38;;
27051;SDS011;14601;49.358;8.256;2022-08-19T06:51:32;12.68;;;11.55;;
27051;SDS011;14601;49.358;8.256;2022-08-19T06:54:34;11.98;;;10.77;;
27051;SDS011;14601;49.358;8.256;2022-08-19T06:57:36;12.90;;;11.10;;
27051;SDS011;14601;49.358;8.256;2022-08-19T07:00:40;12.73;;;11.52;;
27051;SDS011;14601;49.358;8.256;2022-08-19T07:03:42;16.88;;;11.73;;
27051;SDS011;14601;49.358;8.256;2022-08-19T07:06:44;15.77;;;11.98;;
27051;SDS011;14601;49.358;8.256;2022-08-19T07:09:46;13.45;;;11.05;;
27051;SDS011;14601;49.358;8.256;2022-08-19T07:12:48;13.30;;;12.00;;
27051;SDS011;14601;49.358;8.256;2022-08-19T07:15:52;15.45;;;11.35;;
27051;SDS011;14601;49.358;8.256;2022-08-19T07:18:53;13.48;;;11.65;;
27051;SDS011;14601;49.358;8.256;2022-08-19T07:21:56;13.02;;;11.68;;
27051;SDS011;14601;49.358;8.256;2022-08-19T07:24:59;12.23;;;11.05;;
27051;SDS011;14601;49.358;8.256;2022-08-19T07:28:04;13.95;;;12.63;;
27051;SDS011;14601;49.358;8.256;2022-08-19T07:31:11;12.65;;;11.45;;
27051;SDS011;14601;49.358;8.256;2022-08-19T07:34:14;13.05;;;10.95;;
27051;SDS011;14601;49.358;8.256;2022-08-19T07:37:18;18.85;;;13.02;;
27051;SDS011;14601;49.358;8.256;2022-08-19T07:40:20;13.20;;;11.82;;
27051;SDS011;14601;49.358;8.256;2022-08-19T07:43:22;12.25;;;11.15;;
27051;SDS011;14601;49.358;8.256;2022-08-19T07:46:26;15.50;;;10.98;;
27051;SDS011;14601;49.358;8.256;2022-08-19T07:49:28;12.48;;;11.15;;
27051;SDS011;14601;49.358;8.256;2022-08-19T07:52:30;14.32;;;11.65;;
27051;SDS011;14601;49.358;8.256;2022-08-19T07:55:32;13.68;;;11.80;;
27051;SDS011;14601;49.358;8.256;2022-08-19T07:58:36;13.57;;;12.18;;
27051;SDS011;14601;49.358;8.256;2022-08-19T08:01:41;13.95;;;12.55;;
27051;SDS011;14601;49.358;8.256;2022-08-19T08:04:43;13.23;;;11.73;;
27051;SDS011;14601;49.358;8.256;2022-08-19T08:08:03;12.55;;;11.25;;
27051;SDS011;14601;49.358;8.256;2022-08-19T08:11:37;14.70;;;11.07;;
27051;SDS011;14601;49.358;8.256;2022-08-19T08:14:40;12.18;;;10.57;;
27051;SDS011;14601;49.358;8.256;2022-08-19T08:17:46;15.23;;;11.68;;
27051;SDS011;14601;49.358;8.256;2022-08-19T08:20:49;12.70;;;11.50;;
27051;SDS011;14601;49.358;8.256;2022-08-19T08:23:50;12.77;;;10.93;;
27051;SDS011;14601;49.358;8.256;2022-08-19T08:26:55;14.52;;;11.70;;
27051;SDS011;14601;49.358;8.256;2022-08-19T08:29:58;15.43;;;10.93;;
27051;SDS011;14601;49.358;8.256;2022-08-19T08:33:02;11.05;;;10.02;;
27051;SDS011;14601;49.358;8.256;2022-08-19T08:36:04;14.02;;;11.00;;
27051;SDS011;14601;49.358;8.256;2022-08-19T08:39:07;14.82;;;9.85;;
27051;SDS011;14601;49.358;8.256;2022-08-19T08:42:11;11.90;;;9.05;;
27051;SDS011;14601;49.358;8.256;2022-08-19T08:45:20;9.90;;;8.20;;
27051;SDS011;14601;49.358;8.256;2022-08-19T08:48:28;8.38;;;7.57;;
27051;SDS011;14601;49.358;8.256;2022-08-19T08:51:37;9.85;;;7.63;;
27051;SDS011;14601;49.358;8.256;2022-08-19T08:54:42;11.45;;;8.43;;
27051;SDS011;14601;49.358;8.256;2022-08-19T08:57:49;10.63;;;9.38;;
27051;SDS011;14601;49.358;8.256;2022-08-19T09:00:54;8.73;;;7.93;;
27051;SDS011;14601;49.358;8.256;2022-08-19T09:03:58;12.07;;;8.48;;
27051;SDS011;14601;49.358;8.256;2022-08-19T09:07:04;9.32;;;8.32;;
27051;SDS011;14601;49.358;8.256;2022-08-19T09:10:21;9.88;;;8.98;;
27051;SDS011;14601;49.358;8.256;2022-08-19T09:13:34;10.05;;;8.30;;
27051;SDS011;14601;49.358;8.256;2022-08-19T09:16:43;10.23;;;8.90;;
27051;SDS011;14601;49.358;8.256;2022-08-19T09:19:51;9.63;;;8.63;;
27051;SDS011;14601;49.358;8.256;2022-08-19T09:22:55;13.05;;;10.95;;
27051;SDS011;14601;49.358;8.256;2022-08-19T09:25:57;13.38;;;11.98;;
27051;SDS011;14601;49.358;8.256;2022-08-19T09:28:58;11.93;;;10.80;;
27051;SDS011;14601;49.358;8.256;2022-08-19T09:32:01;10.82;;;9.70;;
27051;SDS011;14601;49.358;8.256;2022-08-19T09:35:05;13.70;;;10.35;;
27051;SDS011;14601;49.358;8.256;2022-08-19T09:38:07;9.18;;;8.27;;
27051;SDS011;14601;49.358;8.256;2022-08-19T09:41:10;9.20;;;8.02;;
27051;SDS011;14601;49.358;8.256;2022-08-19T09:44:14;10.10;;;9.10;;
27051;SDS011;14601;49.358;8.256;2022-08-19T09:47:16;10.02;;;8.60;;
27051;SDS011;14601;49.358;8.256;2022-08-19T09:50:19;7.82;;;7.13;;
27051;SDS011;14601;49.358;8.256;2022-08-19T09:53:21;9.77;;;8.77;;
27051;SDS011;14601;49.358;8.256;2022-08-19T09:56:24;10.63;;;7.72;;
27051;SDS011;14601;49.358;8.256;2022-08-19T09:59:26;8.38;;;6.65;;
27051;SDS011;14601;49.358;8.256;2022-08-19T10:02:28;7.20;;;6.55;;
27051;SDS011;14601;49.358;8.256;2022-08-19T10:05:31;10.68;;;8.27;;
27051;SDS011;14601;49.358;8.256;2022-08-19T10:08:52;7.88;;;7.22;;
27051;SDS011;14601;49.358;8.256;2022-08-19T10:11:54;8.27;;;7.47;;
27051;SDS011;14601;49.358;8.256;2022-08-19T10:14:56;7.65;;;6.88;;
27051;SDS011;14601;49.358;8.256;2022-08-19T10:17:58;10.65;;;8.00;;
27051;SDS011;14601;49.358;8.256;2022-08-19T10:21:05;9.48;;;7.43;;
27051;SDS011;14601;49.358;8.256;2022-08-19T10:24:10;6.85;;;6.25;;
27051;SDS011;14601;49.358;8.256;2022-08-19T10:27:12;9.85;;;7.30;;
27051;SDS011;14601;49.358;8.256;2022-08-19T10:30:14;10.43;;;7.28;;
27051;SDS011;14601;49.358;8.256;2022-08-19T10:33:16;10.05;;;9.05;;
27051;SDS011;14601;49.358;8.256;2022-08-19T10:36:21;8.68;;;7.47;;
27051;SDS011;14601;49.358;8.256;2022-08-19T10:42:25;9.20;;;8.40;;
27051;SDS011;14601;49.358;8.256;2022-08-19T10:45:27;10.60;;;9.50;;
27051;SDS011;14601;49.358;8.256;2022-08-19T10:48:29;9.55;;;8.13;;
27051;SDS011;14601;49.358;8.256;2022-08-19T10:51:32;8.90;;;8.10;;
27051;SDS011;14601;49.358;8.256;2022-08-19T10:54:51;10.15;;;7.78;;
27051;SDS011;14601;49.358;8.256;2022-08-19T10:58:11;7.68;;;6.97;;
27051;SDS011;14601;49.358;8.256;2022-08-19T11:01:14;8.13;;;6.88;;
27051;SDS011;14601;49.358;8.256;2022-08-19T11:04:16;9.85;;;7.57;;
27051;SDS011;14601;49.358;8.256;2022-08-19T11:07:20;10.00;;;8.10;;
27051;SDS011;14601;49.358;8.256;2022-08-19T11:10:25;14.90;;;8.50;;
27051;SDS011;14601;49.358;8.256;2022-08-19T11:13:27;9.02;;;8.10;;
27051;SDS011;14601;49.358;8.256;2022-08-19T11:16:29;11.63;;;8.32;;
27051;SDS011;14601;49.358;8.256;2022-08-19T11:19:32;8.88;;;8.18;;
27051;SDS011;14601;49.358;8.256;2022-08-19T11:22:35;7.03;;;6.43;;
27051;SDS011;14601;49.358;8.256;2022-08-19T11:25:38;7.57;;;6.10;;
27051;SDS011;14601;49.358;8.256;2022-08-19T11:28:40;7.63;;;7.03;;
27051;SDS011;14601;49.358;8.256;2022-08-19T11:31:43;7.68;;;7.05;;
27051;SDS011;14601;49.358;8.256;2022-08-19T11:34:46;7.60;;;7.00;;
27051;SDS011;14601;49.358;8.256;2022-08-19T11:37:49;10.98;;;8.32;;
27051;SDS011;14601;49.358;8.256;2022-08-19T11:40:55;7.97;;;7.20;;
27051;SDS011;14601;49.358;8.256;2022-08-19T11:43:58;8.95;;;8.25;;
27051;SDS011;14601;49.358;8.256;2022-08-19T11:47:00;8.38;;;7.78;;
27051;SDS011;14601;49.358;8.256;2022-08-19T11:50:02;10.05;;;7.40;;
27051;SDS011;14601;49.358;8.256;2022-08-19T11:53:05;8.85;;;7.00;;
27051;SDS011;14601;49.358;8.256;2022-08-19T11:56:08;8.43;;;7.35;;
27051;SDS011;14601;49.358;8.256;2022-08-19T11:59:10;7.65;;;7.00;;
27051;SDS011;14601;49.358;8.256;2022-08-19T12:02:12;8.18;;;7.38;;
27051;SDS011;14601;49.358;8.256;2022-08-19T12:05:15;8.18;;;7.00;;
27051;SDS011;14601;49.358;8.256;2022-08-19T12:08:19;10.52;;;6.35;;
27051;SDS011;14601;49.358;8.256;2022-08-19T12:11:21;5.50;;;5.03;;
27051;SDS011;14601;49.358;8.256;2022-08-19T12:14:24;5.68;;;5.28;;
27051;SDS011;14601;49.358;8.256;2022-08-19T12:17:28;5.63;;;5.10;;
27051;SDS011;14601;49.358;8.256;2022-08-19T12:20:30;5.45;;;5.05;;
27051;SDS011;14601;49.358;8.256;2022-08-19T12:23:36;6.20;;;4.60;;
27051;SDS011;14601;49.358;8.256;2022-08-19T12:26:38;5.40;;;4.90;;
27051;SDS011;14601;49.358;8.256;2022-08-19T12:29:40;5.28;;;4.88;;
27051;SDS011;14601;49.358;8.256;2022-08-19T12:32:42;4.80;;;4.40;;
27051;SDS011;14601;49.358;8.256;2022-08-19T12:35:44;5.13;;;4.55;;
27051;SDS011;14601;49.358;8.256;2022-08-19T12:38:48;4.90;;;4.50;;
27051;SDS011;14601;49.358;8.256;2022-08-19T12:41:50;7.00;;;4.75;;
27051;SDS011;14601;49.358;8.256;2022-08-19T12:44:53;4.45;;;4.00;;
27051;SDS011;14601;49.358;8.256;2022-08-19T12:47:55;5.47;;;4.13;;
27051;SDS011;14601;49.358;8.256;2022-08-19T12:50:57;4.13;;;3.83;;
27051;SDS011;14601;49.358;8.256;2022-08-19T12:54:00;4.70;;;4.00;;
27051;SDS011;14601;49.358;8.256;2022-08-19T12:57:04;4.80;;;4.40;;
27051;SDS011;14601;49.358;8.256;2022-08-19T13:00:08;4.88;;;3.88;;
27051;SDS011;14601;49.358;8.256;2022-08-19T13:03:13;4.43;;;4.07;;
27051;SDS011;14601;49.358;8.256;2022-08-19T13:06:15;3.60;;;3.40;;
27051;SDS011;14601;49.358;8.256;2022-08-19T13:09:20;4.13;;;3.72;;
27051;SDS011;14601;49.358;8.256;2022-08-19T13:12:22;3.88;;;3.42;;
27051;SDS011;14601;49.358;8.256;2022-08-19T13:15:24;4.32;;;3.92;;
27051;SDS011;14601;49.358;8.256;2022-08-19T13:18:31;4.25;;;3.92;;
27051;SDS011;14601;49.358;8.256;2022-08-19T13:21:33;4.38;;;3.97;;
27051;SDS011;14601;49.358;8.256;2022-08-19T13:24:37;5.53;;;3.97;;
27051;SDS011;14601;49.358;8.256;2022-08-19T13:27:40;3.70;;;3.40;;
27051;SDS011;14601;49.358;8.256;2022-08-19T13:30:46;3.35;;;3.05;;
27051;SDS011;14601;49.358;8.256;2022-08-19T13:34:06;6.65;;;3.13;;
27051;SDS011;14601;49.358;8.256;2022-08-19T13:37:10;2.92;;;2.72;;
27051;SDS011;14601;49.358;8.256;2022-08-19T13:40:15;4.72;;;3.10;;
27051;SDS011;14601;49.358;8.256;2022-08-19T13:43:19;3.45;;;2.90;;
27051;SDS011;14601;49.358;8.256;2022-08-19T13:46:23;4.25;;;3.05;;
27051;SDS011;14601;49.358;8.256;2022-08-19T13:49:25;3.22;;;3.00;;
27051;SDS011;14601;49.358;8.256;2022-08-19T13:52:31;6.15;;;3.25;;
27051;SDS011;14601;49.358;8.256;2022-08-19T13:55:34;4.07;;;3.50;;
27051;SDS011;14601;49.358;8.256;2022-08-19T13:58:37;3.72;;;3.40;;
27051;SDS011;14601;49.358;8.256;2022-08-19T14:01:39;3.70;;;3.30;;
27051;SDS011;14601;49.358;8.256;2022-08-19T14:04:42;3.80;;;3.08;;
27051;SDS011;14601;49.358;8.256;2022-08-19T14:07:44;4.05;;;3.15;;
27051;SDS011;14601;49.358;8.256;2022-08-19T14:10:47;3.50;;;3.00;;
27051;SDS011;14601;49.358;8.256;2022-08-19T14:13:49;3.65;;;3.03;;
27051;SDS011;14601;49.358;8.256;2022-08-19T14:16:51;3.80;;;3.50;;
27051;SDS011;14601;49.358;8.256;2022-08-19T14:19:55;3.63;;;3.33;;
27051;SDS011;14601;49.358;8.256;2022-08-19T14:22:57;4.75;;;3.85;;
27051;SDS011;14601;49.358;8.256;2022-08-19T14:26:04;4.82;;;3.30;;
27051;SDS011;14601;49.358;8.256;2022-08-19T14:29:08;3.72;;;3.42;;
27051;SDS011;14601;49.358;8.256;2022-08-19T14:32:10;6.78;;;3.58;;
27051;SDS011;14601;49.358;8.256;2022-08-19T14:35:13;3.72;;;3.42;;
27051;SDS011;14601;49.358;8.256;2022-08-19T14:38:16;5.30;;;3.50;;
27051;SDS011;14601;49.358;8.256;2022-08-19T14:41:21;4.25;;;3.60;;
27051;SDS011;14601;49.358;8.256;2022-08-19T14:44:24;5.03;;;3.70;;
27051;SDS011;14601;49.358;8.256;2022-08-19T14:47:26;8.70;;;3.92;;
27051;SDS011;14601;49.358;8.256;2022-08-19T14:50:28;5.80;;;3.72;;
27051;SDS011;14601;49.358;8.256;2022-08-19T14:53:30;5.93;;;3.45;;
27051;SDS011;14601;49.358;8.256;2022-08-19T14:56:34;4.75;;;3.78;;
27051;SDS011;14601;49.358;8.256;2022-08-19T14:59:36;5.28;;;3.67;;
27051;SDS011;14601;49.358;8.256;2022-08-19T15:02:39;6.22;;;3.83;;
27051;SDS011;14601;49.358;8.256;2022-08-19T15:05:40;3.97;;;3.58;;
27051;SDS011;14601;49.358;8.256;2022-08-19T15:08:42;6.38;;;3.88;;
27051;SDS011;14601;49.358;8.256;2022-08-19T15:11:46;4.30;;;3.90;;
27051;SDS011;14601;49.358;8.256;2022-08-19T15:14:49;4.32;;;3.80;;
27051;SDS011;14601;49.358;8.256;2022-08-19T15:17:51;4.38;;;3.97;;
27051;SDS011;14601;49.358;8.256;2022-08-19T15:20:53;5.57;;;3.58;;
27051;SDS011;14601;49.358;8.256;2022-08-19T15:23:57;5.43;;;3.85;;
27051;SDS011;14601;49.358;8.256;2022-08-19T15:27:02;5.13;;;3.83;;
27051;SDS011;14601;49.358;8.256;2022-08-19T15:30:05;5.80;;;3.88;;
27051;SDS011;14601;49.358;8.256;2022-08-19T15:33:09;5.00;;;3.72;;
27051;SDS011;14601;49.358;8.256;2022-08-19T15:36:14;9.02;;;4.25;;
27051;SDS011;14601;49.358;8.256;2022-08-19T15:39:16;4.25;;;3.85;;
27051;SDS011;14601;49.358;8.256;2022-08-19T15:42:21;6.00;;;3.58;;
27051;SDS011;14601;49.358;8.256;2022-08-19T15:45:22;6.68;;;4.00;;
27051;SDS011;14601;49.358;8.256;2022-08-19T15:48:28;4.43;;;4.03;;
27051;SDS011;14601;49.358;8.256;2022-08-19T15:51:31;4.60;;;4.00;;
27051;SDS011;14601;49.358;8.256;2022-08-19T15:54:35;4.82;;;3.92;;
27051;SDS011;14601;49.358;8.256;2022-08-19T15:57:38;4.25;;;3.85;;
27051;SDS011;14601;49.358;8.256;2022-08-19T16:00:58;6.57;;;3.70;;
27051;SDS011;14601;49.358;8.256;2022-08-19T16:04:19;4.25;;;3.95;;
27051;SDS011;14601;49.358;8.256;2022-08-19T16:07:38;4.35;;;3.85;;
27051;SDS011;14601;49.358;8.256;2022-08-19T16:10:40;4.00;;;3.70;;
27051;SDS011;14601;49.358;8.256;2022-08-19T16:13:44;5.25;;;3.80;;
27051;SDS011;14601;49.358;8.256;2022-08-19T16:16:45;4.10;;;3.80;;
27051;SDS011;14601;49.358;8.256;2022-08-19T16:19:48;8.05;;;4.03;;
27051;SDS011;14601;49.358;8.256;2022-08-19T16:22:50;5.22;;;4.25;;
27051;SDS011;14601;49.358;8.256;2022-08-19T16:25:52;4.70;;;4.30;;
27051;SDS011;14601;49.358;8.256;2022-08-19T16:28:56;5.00;;;4.15;;
27051;SDS011;14601;49.358;8.256;2022-08-19T16:31:58;4.47;;;3.85;;
27051;SDS011;14601;49.358;8.256;2022-08-19T16:35:02;7.88;;;4.22;;
27051;SDS011;14601;49.358;8.256;2022-08-19T16:38:04;4.77;;;4.20;;
27051;SDS011;14601;49.358;8.256;2022-08-19T16:41:07;4.93;;;4.47;;
27051;SDS011;14601;49.358;8.256;2022-08-19T16:44:11;6.05;;;4.32;;
27051;SDS011;14601;49.358;8.256;2022-08-19T16:47:14;5.28;;;4.78;;
27051;SDS011;14601;49.358;8.256;2022-08-19T16:50:17;6.30;;;5.45;;
27051;SDS011;14601;49.358;8.256;2022-08-19T16:53:22;5.55;;;5.15;;
27051;SDS011;14601;49.358;8.256;2022-08-19T16:56:27;7.88;;;5.40;;
27051;SDS011;14601;49.358;8.256;2022-08-19T16:59:31;6.22;;;5.60;;
27051;SDS011;14601;49.358;8.256;2022-08-19T17:02:33;9.55;;;5.75;;
27051;SDS011;14601;49.358;8.256;2022-08-19T17:05:40;6.07;;;5.32;;
27051;SDS011;14601;49.358;8.256;2022-08-19T17:08:42;8.63;;;5.57;;
27051;SDS011;14601;49.358;8.256;2022-08-19T17:11:44;7.47;;;5.40;;
27051;SDS011;14601;49.358;8.256;2022-08-19T17:14:48;6.20;;;5.60;;
27051;SDS011;14601;49.358;8.256;2022-08-19T17:17:50;6.38;;;5.55;;
27051;SDS011;14601;49.358;8.256;2022-08-19T17:20:52;8.85;;;5.80;;
27051;SDS011;14601;49.358;8.256;2022-08-19T17:23:55;7.88;;;5.25;;
27051;SDS011;14601;49.358;8.256;2022-08-19T17:26:58;11.93;;;6.38;;
27051;SDS011;14601;49.358;8.256;2022-08-19T17:30:03;10.23;;;5.97;;
27051;SDS011;14601;49.358;8.256;2022-08-19T17:33:06;8.45;;;5.88;;
27051;SDS011;14601;49.358;8.256;2022-08-19T17:36:08;7.10;;;5.47;;
27051;SDS011;14601;49.358;8.256;2022-08-19T17:39:10;6.28;;;5.78;;
27051;SDS011;14601;49.358;8.256;2022-08-19T17:42:13;6.07;;;5.47;;
27051;SDS011;14601;49.358;8.256;2022-08-19T17:45:16;7.45;;;5.55;;
27051;SDS011;14601;49.358;8.256;2022-08-19T17:48:20;7.50;;;5.45;;
27051;SDS011;14601;49.358;8.256;2022-08-19T17:51:25;6.57;;;5.78;;
27051;SDS011;14601;49.358;8.256;2022-08-19T17:54:40;6.65;;;5.50;;
27051;SDS011;14601;49.358;8.256;2022-08-19T17:57:42;7.70;;;5.85;;
27051;SDS011;14601;49.358;8.256;2022-08-19T18:00:45;5.93;;;5.32;;
27051;SDS011;14601;49.358;8.256;2022-08-19T18:03:48;6.43;;;5.82;;
27051;SDS011;14601;49.358;8.256;2022-08-19T18:06:50;9.73;;;6.03;;
27051;SDS011;14601;49.358;8.256;2022-08-19T18:09:52;7.15;;;6.45;;
27051;SDS011;14601;49.358;8.256;2022-08-19T18:12:54;8.55;;;6.40;;
27051;SDS011;14601;49.358;8.256;2022-08-19T18:15:57;9.30;;;5.78;;
27051;SDS011;14601;49.358;8.256;2022-08-19T18:18:59;7.63;;;6.18;;